Time;durP1;ratioP1;P1;durP2;ratioP2;P2;SDS_P1;SDS_P2;PMS_P1;PMS_P2;Temp;Humidity;BMP_temperature;BMP_pressure;BME280_temperature;BME280_humidity;BME280_pressure;Samples;Min_cycle;Max_cycle;Signal;HPM_P1;HPM_P2
2024/03/07 00:00:35;;;;;;;53.05;25.02;;;5.10;99.90;;;;;;5022848;28;20033;-92
2024/03/07 00:03:01;;;;;;;70.95;31.40;;;5.10;99.90;;;;;;5019807;28;20076;-94
2024/03/07 00:05:27;;;;;;;60.42;27.35;;;5.10;99.90;;;;;;5015225;28;20034;-95
2024/03/07 00:07:55;;;;;;;64.38;28.23;;;5.10;99.90;;;;;;5011107;28;20029;-96
2024/03/07 00:10:21;;;;;;;57.78;28.48;;;5.00;99.90;;;;;;5029651;28;20022;-95
2024/03/07 00:12:47;;;;;;;56.83;27.80;;;5.00;99.90;;;;;;5029017;28;20025;-95
2024/03/07 00:15:13;;;;;;;61.13;29.00;;;4.90;99.90;;;;;;5024930;28;20018;-94
2024/03/07 00:17:40;;;;;;;65.82;29.30;;;4.90;99.90;;;;;;5006525;28;20013;-96
2024/03/07 00:20:09;;;;;;;59.92;27.00;;;4.80;99.90;;;;;;5021917;28;20026;-94
2024/03/07 00:22:36;;;;;;;62.00;27.95;;;4.70;99.90;;;;;;5020409;28;20030;-94
2024/03/07 00:25:05;;;;;;;59.40;28.00;;;4.60;99.90;;;;;;5004165;28;20128;-95
2024/03/07 00:27:31;;;;;;;61.00;27.98;;;4.60;99.90;;;;;;5021048;28;20145;-94
2024/03/07 00:29:58;;;;;;;56.47;26.80;;;4.60;99.90;;;;;;4988941;28;20034;-95
2024/03/07 00:32:24;;;;;;;60.85;27.88;;;4.50;99.90;;;;;;5004645;28;20032;-95
2024/03/07 00:34:50;;;;;;;60.67;28.25;;;4.40;99.90;;;;;;5002908;28;20030;-95
2024/03/07 00:37:16;;;;;;;62.17;28.92;;;4.40;99.90;;;;;;5002718;28;20022;-94
2024/03/07 00:39:43;;;;;;;63.90;27.95;;;4.40;99.90;;;;;;5020971;28;20022;-95
2024/03/07 00:42:09;;;;;;;65.60;30.00;;;4.40;99.90;;;;;;5015281;28;20061;-92
2024/03/07 00:44:34;;;;;;;64.90;27.50;;;4.40;99.90;;;;;;5038993;28;20090;-95
2024/03/07 00:47:02;;;;;;;62.40;26.73;;;4.40;99.90;;;;;;5012316;28;20026;-95
2024/03/07 00:49:28;;;;;;;67.47;29.50;;;4.40;99.90;;;;;;5003660;28;20029;-95
2024/03/07 00:51:54;;;;;;;65.07;28.27;;;4.50;99.90;;;;;;5003385;28;20085;-95
2024/03/07 00:54:20;;;;;;;65.95;29.23;;;4.50;99.90;;;;;;5005538;28;20026;-95
2024/03/07 00:56:49;;;;;;;60.88;25.48;;;4.50;99.90;;;;;;5009484;28;20033;-95
2024/03/07 00:59:15;;;;;;;64.65;27.85;;;4.50;99.90;;;;;;5012964;28;20030;-96
2024/03/07 01:01:42;;;;;;;59.53;26.23;;;4.50;99.90;;;;;;5029834;28;20005;-94
2024/03/07 01:04:08;;;;;;;60.47;27.55;;;4.50;99.90;;;;;;5013290;28;20052;-96
2024/03/07 01:06:36;;;;;;;59.72;27.70;;;4.60;99.90;;;;;;5033594;28;20026;-90
2024/03/07 01:09:02;;;;;;;65.20;28.85;;;4.60;99.90;;;;;;5038785;28;20017;-93
2024/03/07 01:11:27;;;;;;;60.75;27.25;;;4.60;99.90;;;;;;5021417;28;20048;-92
2024/03/07 01:13:53;;;;;;;64.15;29.23;;;4.60;99.90;;;;;;5017314;28;20188;-96
2024/03/07 01:16:19;;;;;;;61.60;28.15;;;4.60;99.90;;;;;;5005972;28;20395;-95
2024/03/07 01:18:44;;;;;;;55.63;25.33;;;4.50;99.90;;;;;;5026269;28;20022;-96
2024/03/07 01:21:10;;;;;;;65.55;29.25;;;4.50;99.90;;;;;;5005698;28;20018;-96
2024/03/07 01:23:36;;;;;;;60.65;26.45;;;4.50;99.90;;;;;;5014464;28;20109;-94
2024/03/07 01:26:02;;;;;;;56.15;25.67;;;4.50;99.90;;;;;;5016678;28;20021;-94
2024/03/07 01:28:31;;;;;;;62.00;28.08;;;4.50;99.90;;;;;;5017407;28;20030;-95
2024/03/07 01:31:00;;;;;;;61.42;25.15;;;4.40;99.90;;;;;;5017338;28;20009;-95
2024/03/07 01:33:27;;;;;;;56.38;23.73;;;4.40;99.90;;;;;;5037146;28;20030;-96
2024/03/07 01:35:52;;;;;;;68.97;28.65;;;4.40;99.90;;;;;;5020169;28;20018;-96
2024/03/07 01:38:18;;;;;;;63.22;27.00;;;4.40;99.90;;;;;;5020802;28;20045;-95
2024/03/07 01:40:44;;;;;;;62.33;27.25;;;4.40;99.90;;;;;;5036485;28;20026;-94
2024/03/07 01:43:10;;;;;;;58.97;26.30;;;4.40;99.90;;;;;;5018080;28;20034;-94
2024/03/07 01:45:38;;;;;;;48.63;23.33;;;4.40;99.90;;;;;;5035379;28;20054;-95
2024/03/07 01:48:10;;;;;;;52.67;23.88;;;4.30;99.90;;;;;;5018651;28;20026;-92
2024/03/07 01:50:40;;;;;;;58.63;27.00;;;4.30;99.90;;;;;;5036601;28;20022;-95
2024/03/07 01:53:09;;;;;;;54.13;23.38;;;4.30;99.90;;;;;;5019363;28;20052;-95
2024/03/07 01:55:34;;;;;;;63.75;26.38;;;4.30;99.90;;;;;;5017486;28;20034;-95
2024/03/07 01:58:02;;;;;;;52.25;24.20;;;4.30;99.90;;;;;;5019421;28;20077;-96
2024/03/07 02:00:28;;;;;;;58.38;25.23;;;4.20;99.90;;;;;;5013415;28;20093;-94
2024/03/07 02:02:54;;;;;;;61.92;26.48;;;4.20;99.90;;;;;;5010062;28;20050;-94
2024/03/07 02:05:21;;;;;;;63.97;25.75;;;4.10;99.90;;;;;;5020035;28;20494;-95
2024/03/07 02:07:47;;;;;;;56.45;24.42;;;4.10;99.90;;;;;;5002265;28;20041;-95
2024/03/07 02:10:13;;;;;;;61.78;26.40;;;4.10;99.90;;;;;;5001815;28;20021;-95
2024/03/07 02:12:39;;;;;;;54.28;23.98;;;4.10;99.90;;;;;;4999769;28;20022;-95
2024/03/07 02:15:05;;;;;;;63.20;26.33;;;4.10;99.90;;;;;;5000289;28;20399;-96
2024/03/07 02:17:32;;;;;;;62.95;26.83;;;4.10;99.90;;;;;;5018416;28;20033;-94
2024/03/07 02:19:58;;;;;;;57.35;26.30;;;4.10;99.90;;;;;;4999012;28;20053;-94
2024/03/07 02:22:26;;;;;;;55.70;24.80;;;4.10;99.90;;;;;;5000208;28;20061;-95
2024/03/07 02:24:52;;;;;;;57.42;23.85;;;4.10;99.90;;;;;;4999745;28;20029;-95
2024/03/07 02:27:22;;;;;;;58.38;23.38;;;4.10;99.90;;;;;;5015558;28;20026;-95
2024/03/07 02:29:51;;;;;;;62.47;28.27;;;4.10;99.90;;;;;;5016157;28;20041;-95
2024/03/07 02:32:18;;;;;;;56.50;25.67;;;4.10;99.90;;;;;;5017920;28;20118;-96
2024/03/07 02:34:48;;;;;;;59.95;25.75;;;4.10;99.90;;;;;;5000260;28;20034;-96
2024/03/07 02:37:15;;;;;;;63.03;27.33;;;4.10;99.90;;;;;;5014769;28;20105;-95
2024/03/07 02:39:42;;;;;;;57.97;25.40;;;4.10;99.90;;;;;;4997556;28;20037;-95
2024/03/07 02:42:08;;;;;;;58.92;26.52;;;4.00;99.90;;;;;;5017180;28;20033;-95
2024/03/07 02:44:34;;;;;;;61.78;25.40;;;4.10;99.90;;;;;;5018073;28;20050;-95
2024/03/07 02:47:03;;;;;;;69.85;27.95;;;4.10;99.90;;;;;;5015537;28;20026;-95
2024/03/07 02:49:29;;;;;;;58.72;25.65;;;4.10;99.90;;;;;;5008942;28;20479;-94
2024/03/07 02:51:55;;;;;;;47.65;22.02;;;4.10;99.90;;;;;;5005306;28;20057;-96
2024/03/07 02:54:27;;;;;;;56.67;24.92;;;4.20;99.90;;;;;;5028635;28;20030;-95
2024/03/07 02:56:53;;;;;;;51.30;22.50;;;4.20;99.90;;;;;;5007523;28;20032;-95
2024/03/07 02:59:19;;;;;;;59.00;25.13;;;4.20;99.90;;;;;;5006711;28;20045;-96
2024/03/07 03:01:45;;;;;;;63.53;27.45;;;4.30;99.90;;;;;;5008282;28;20474;-95
2024/03/07 03:04:13;;;;;;;68.97;28.50;;;4.30;99.90;;;;;;5005965;28;20109;-96
2024/03/07 03:06:40;;;;;;;61.03;26.70;;;4.30;99.90;;;;;;4988211;28;20026;-95
2024/03/07 03:09:05;;;;;;;63.08;26.08;;;4.30;99.90;;;;;;5002913;28;20105;-95
2024/03/07 03:11:31;;;;;;;58.60;25.23;;;4.30;99.90;;;;;;5001750;28;20049;-95
2024/03/07 03:13:57;;;;;;;73.60;28.77;;;4.30;99.90;;;;;;4985775;28;20026;-94
2024/03/07 03:16:24;;;;;;;63.10;25.77;;;4.40;99.90;;;;;;4987117;28;20029;-96
2024/03/07 03:18:52;;;;;;;65.38;27.05;;;4.40;99.90;;;;;;5017186;28;20032;-95
2024/03/07 03:21:18;;;;;;;60.70;24.73;;;4.40;99.90;;;;;;4984955;28;20022;-95
2024/03/07 03:23:45;;;;;;;54.35;22.63;;;4.40;99.90;;;;;;5000561;28;20123;-95
2024/03/07 03:26:15;;;;;;;58.78;25.25;;;4.50;99.90;;;;;;5003144;28;20026;-95
2024/03/07 03:28:41;;;;;;;;;;;4.50;99.90;;;;;;5002857;28;20463;-96
2024/03/07 03:31:08;;;;;;;69.47;25.65;;;4.60;99.90;;;;;;4982865;28;19921;-95
2024/03/07 03:33:35;;;;;;;63.42;24.23;;;4.60;99.90;;;;;;4999997;28;20057;-96
2024/03/07 03:36:26;;;;;;;65.82;25.75;;;4.60;99.90;;;;;;5016892;28;20026;-95
2024/03/07 03:38:54;;;;;;;58.85;24.08;;;4.60;99.90;;;;;;4983426;28;20088;-95
2024/03/07 03:41:22;;;;;;;55.75;22.48;;;4.70;99.90;;;;;;4999293;28;20125;-95
2024/03/07 03:43:49;;;;;;;67.55;25.58;;;4.70;99.90;;;;;;4981977;28;20100;-95
2024/03/07 03:46:18;;;;;;;64.90;24.90;;;4.70;99.90;;;;;;4981727;28;20547;-95
2024/03/07 03:48:44;;;;;;;71.30;26.55;;;4.70;99.90;;;;;;5010649;28;20032;-93
2024/03/07 03:51:12;;;;;;;59.20;24.35;;;4.70;99.90;;;;;;5002343;28;20014;-94
2024/03/07 03:53:38;;;;;;;64.80;25.23;;;4.70;99.90;;;;;;5001644;28;20025;-94
2024/03/07 03:56:05;;;;;;;68.60;25.30;;;4.70;99.90;;;;;;5002709;28;20471;-94
2024/03/07 03:58:31;;;;;;;47.38;20.65;;;4.70;99.90;;;;;;5002073;28;20080;-95
2024/03/07 04:01:01;;;;;;;56.40;23.20;;;4.70;99.90;;;;;;5001374;28;20438;-96
2024/03/07 04:03:26;;;;;;;56.85;22.75;;;4.70;99.90;;;;;;5001428;28;20076;-94
2024/03/07 04:05:52;;;;;;;47.95;19.42;;;4.70;99.90;;;;;;5001437;28;20026;-94
2024/03/07 04:08:20;;;;;;;54.58;20.38;;;4.70;99.90;;;;;;4987846;28;20061;-94
2024/03/07 04:10:47;;;;;;;52.88;19.33;;;4.70;99.90;;;;;;5005644;28;20025;-96
2024/03/07 04:13:14;;;;;;;43.55;17.73;;;4.70;99.90;;;;;;5014962;28;20021;-95
2024/03/07 04:15:39;;;;;;;46.38;17.48;;;4.60;99.90;;;;;;5007249;28;20026;-95
2024/03/07 04:18:05;;;;;;;42.17;16.85;;;4.60;99.90;;;;;;5002159;28;20022;-94
2024/03/07 04:20:32;;;;;;;43.47;17.88;;;4.60;99.90;;;;;;5004284;28;20033;-95
2024/03/07 04:22:59;;;;;;;41.70;16.27;;;4.60;99.90;;;;;;5005270;28;20109;-94
2024/03/07 04:25:28;;;;;;;36.05;16.63;;;4.50;99.90;;;;;;5007621;28;20132;-94
2024/03/07 04:27:54;;;;;;;40.90;16.42;;;4.50;99.90;;;;;;5007514;28;20044;-94
2024/03/07 04:30:21;;;;;;;42.63;16.13;;;4.50;99.90;;;;;;5007185;28;20034;-94
2024/03/07 04:32:46;;;;;;;38.55;15.60;;;4.50;99.90;;;;;;5008008;28;20044;-94
2024/03/07 04:35:12;;;;;;;36.40;15.73;;;4.50;99.90;;;;;;5009224;28;20030;-92
2024/03/07 04:37:40;;;;;;;38.65;16.52;;;4.50;99.90;;;;;;5009456;28;20084;-92
2024/03/07 04:40:15;;;;;;;38.70;15.30;;;4.50;99.90;;;;;;5027190;28;20089;-94
2024/03/07 04:42:43;;;;;;;39.17;14.88;;;4.40;99.90;;;;;;5018070;28;20037;-94
2024/03/07 04:45:12;;;;;;;38.38;14.75;;;4.50;99.90;;;;;;5021261;28;20106;-94
2024/03/07 04:47:40;;;;;;;37.35;15.63;;;4.50;99.90;;;;;;5014263;28;20013;-95
2024/03/07 04:50:12;;;;;;;38.70;15.93;;;4.50;99.90;;;;;;5015340;28;20053;-94
2024/03/07 04:52:39;;;;;;;35.25;14.52;;;4.50;99.90;;;;;;5010976;28;20364;-94
2024/03/07 04:55:09;;;;;;;36.70;15.18;;;4.40;99.90;;;;;;5011322;28;20022;-96
2024/03/07 04:57:41;;;;;;;39.83;15.77;;;4.40;99.90;;;;;;5011205;28;20026;-95
2024/03/07 05:00:14;;;;;;;36.50;14.23;;;4.40;99.90;;;;;;5009122;28;20022;-94
2024/03/07 05:02:41;;;;;;;41.05;15.57;;;4.40;99.90;;;;;;5010798;28;20056;-96
2024/03/07 05:05:07;;;;;;;41.38;15.27;;;4.40;99.90;;;;;;5024483;28;20029;-94
2024/03/07 05:07:37;;;;;;;40.63;17.05;;;4.40;99.90;;;;;;5009061;28;20026;-95
2024/03/07 05:10:07;;;;;;;36.55;14.65;;;4.40;99.90;;;;;;5010507;28;20085;-95
2024/03/07 05:12:36;;;;;;;36.75;14.23;;;4.40;99.90;;;;;;5010509;28;20033;-94
2024/03/07 05:15:04;;;;;;;42.20;15.13;;;4.40;99.90;;;;;;5012509;28;20013;-93
2024/03/07 05:17:32;;;;;;;38.40;16.25;;;4.40;99.90;;;;;;5015272;28;20045;-96
2024/03/07 05:19:59;;;;;;;35.15;14.88;;;4.30;99.90;;;;;;5013115;28;20025;-95
2024/03/07 05:22:26;;;;;;;45.08;16.23;;;4.30;99.90;;;;;;5011497;28;20061;-95
2024/03/07 05:24:52;;;;;;;41.60;17.45;;;4.30;99.90;;;;;;5011304;28;20038;-95
2024/03/07 05:27:17;;;;;;;46.67;17.70;;;4.30;99.90;;;;;;5012903;28;20049;-92
2024/03/07 05:29:43;;;;;;;32.97;13.63;;;4.30;99.90;;;;;;5013650;28;20030;-96
2024/03/07 05:32:26;;;;;;;39.53;15.32;;;4.30;99.90;;;;;;5011908;28;20022;-95
2024/03/07 05:34:55;;;;;;;40.40;16.50;;;4.20;99.90;;;;;;4997701;28;20395;-95
2024/03/07 05:37:23;;;;;;;39.92;15.55;;;4.30;99.90;;;;;;5005142;28;20100;-95
2024/03/07 05:39:51;;;;;;;45.40;16.73;;;4.20;99.90;;;;;;5003570;28;20459;-95
2024/03/07 05:42:17;;;;;;;49.33;16.05;;;4.20;99.90;;;;;;5008807;28;20022;-94
2024/03/07 05:44:42;;;;;;;42.20;15.63;;;4.10;99.90;;;;;;5008899;28;20042;-91
2024/03/07 05:47:09;;;;;;;46.28;17.08;;;4.10;99.90;;;;;;5015177;28;20097;-94
2024/03/07 05:49:37;;;;;;;47.75;17.05;;;4.10;99.90;;;;;;5013646;28;20026;-95
2024/03/07 05:52:06;;;;;;;43.67;16.13;;;4.10;99.90;;;;;;4998547;28;20101;-95
2024/03/07 05:54:34;;;;;;;47.28;16.92;;;4.10;99.90;;;;;;4986062;28;20030;-96
2024/03/07 05:57:18;;;;;;;43.67;16.83;;;4.10;99.90;;;;;;5018528;28;20033;-95
2024/03/07 05:59:52;;;;;;;37.70;13.52;;;4.00;99.90;;;;;;4984967;28;20433;-95
2024/03/07 06:02:20;;;;;;;40.90;15.70;;;4.00;99.90;;;;;;5001089;28;20122;-93
2024/03/07 06:04:48;;;;;;;44.28;15.55;;;4.00;99.90;;;;;;5018402;28;20030;-96
2024/03/07 06:07:15;;;;;;;47.30;16.50;;;4.00;99.90;;;;;;4987487;28;20394;-93
2024/03/07 06:09:45;;;;;;;49.25;17.13;;;4.10;99.90;;;;;;5005174;28;20022;-93
2024/03/07 06:12:10;;;;;;;52.53;17.83;;;4.10;99.90;;;;;;4993260;28;20041;-93
2024/03/07 06:14:36;;;;;;;41.35;16.38;;;4.10;99.90;;;;;;5020441;28;20037;-94
2024/03/07 06:17:03;;;;;;;47.53;16.55;;;4.00;99.90;;;;;;5019428;28;20048;-95
2024/03/07 06:19:31;;;;;;;49.55;17.25;;;4.00;99.90;;;;;;5018849;28;20037;-95
2024/03/07 06:21:57;;;;;;;49.65;17.30;;;4.00;99.90;;;;;;5006223;28;20040;-95
2024/03/07 06:24:23;;;;;;;52.83;18.05;;;4.00;99.90;;;;;;5002514;28;20451;-94
2024/03/07 06:26:59;;;;;;;42.67;15.35;;;4.10;99.90;;;;;;5002117;28;20018;-96
2024/03/07 06:29:28;;;;;;;50.00;18.80;;;4.10;99.90;;;;;;5004639;28;20036;-95
2024/03/07 06:31:54;;;;;;;56.38;18.20;;;4.10;99.90;;;;;;5009979;28;20025;-95
2024/03/07 06:34:20;;;;;;;53.70;17.58;;;4.10;99.90;;;;;;5006776;28;20099;-94
2024/03/07 06:36:46;;;;;;;47.70;17.70;;;4.10;99.90;;;;;;5004703;28;20097;-94
2024/03/07 06:39:11;;;;;;;49.70;17.33;;;4.20;99.90;;;;;;5006412;28;20029;-94
2024/03/07 06:41:38;;;;;;;51.45;19.02;;;4.20;99.90;;;;;;5006646;28;20492;-95
2024/03/07 06:44:03;;;;;;;52.13;18.33;;;4.20;99.90;;;;;;5004549;28;20101;-96
2024/03/07 06:46:33;;;;;;;48.55;17.52;;;4.20;99.90;;;;;;5025346;28;20094;-95
2024/03/07 06:48:59;;;;;;;58.17;19.33;;;4.20;99.90;;;;;;5010340;28;20029;-95
2024/03/07 06:51:25;;;;;;;55.00;18.70;;;4.20;99.90;;;;;;5029679;28;20292;-94
2024/03/07 06:53:51;;;;;;;59.63;19.20;;;4.20;99.90;;;;;;5019099;28;20014;-91
2024/03/07 06:56:16;;;;;;;66.55;20.23;;;4.20;99.90;;;;;;5037154;28;20014;-90
2024/03/07 06:58:43;;;;;;;56.67;19.17;;;4.20;99.90;;;;;;5020054;28;20038;-90
2024/03/07 07:01:15;;;;;;;56.47;19.67;;;4.20;99.90;;;;;;5019765;28;20033;-94
2024/03/07 07:03:43;;;;;;;58.75;20.15;;;4.30;99.90;;;;;;5016169;28;20039;-92
2024/03/07 07:06:10;;;;;;;64.43;20.38;;;4.30;99.90;;;;;;5014805;28;20018;-94
2024/03/07 07:08:36;;;;;;;67.18;21.02;;;4.30;99.90;;;;;;5010408;28;20037;-95
2024/03/07 07:11:03;;;;;;;57.72;19.20;;;4.30;99.90;;;;;;5008496;28;20018;-95
2024/03/07 07:13:29;;;;;;;63.65;20.08;;;4.30;99.90;;;;;;5005938;28;20050;-93
2024/03/07 07:15:55;;;;;;;65.65;20.27;;;4.30;99.90;;;;;;5003220;28;20026;-93
2024/03/07 07:18:23;;;;;;;59.53;20.08;;;4.40;99.90;;;;;;5001717;28;20086;-93
2024/03/07 07:20:51;;;;;;;53.03;17.55;;;4.40;99.90;;;;;;5014042;28;20078;-96
2024/03/07 07:23:18;;;;;;;66.97;20.48;;;4.40;99.90;;;;;;5015555;28;20071;-95
2024/03/07 07:25:44;;;;;;;49.35;16.73;;;4.40;99.90;;;;;;5017375;28;20070;-93
2024/03/07 07:28:11;;;;;;;55.47;18.20;;;4.40;99.90;;;;;;5017115;28;20026;-93
2024/03/07 07:30:37;;;;;;;52.75;18.52;;;4.40;99.90;;;;;;5012894;28;20022;-94
2024/03/07 07:33:03;;;;;;;66.93;20.77;;;4.40;99.90;;;;;;5012056;28;20054;-94
2024/03/07 07:35:28;;;;;;;42.72;14.13;;;4.50;99.90;;;;;;5010681;28;20018;-94
2024/03/07 07:37:55;;;;;;;51.42;17.50;;;4.50;99.90;;;;;;5012433;28;20141;-94
2024/03/07 07:40:23;;;;;;;50.72;18.95;;;4.50;99.90;;;;;;5014379;28;20061;-95
2024/03/07 07:42:51;;;;;;;52.22;18.50;;;4.50;99.90;;;;;;5016933;28;20023;-94
2024/03/07 07:45:19;;;;;;;45.75;17.25;;;4.50;99.90;;;;;;5007146;28;20105;-94
2024/03/07 07:47:48;;;;;;;46.63;16.48;;;4.50;99.90;;;;;;5008602;28;20022;-95
2024/03/07 07:50:19;;;;;;;51.20;18.50;;;4.50;99.90;;;;;;5019702;28;20030;-92
2024/03/07 07:52:50;;;;;;;42.10;15.48;;;4.50;99.90;;;;;;5018434;28;20058;-93
2024/03/07 07:55:17;;;;;;;;;;;4.60;99.90;;;;;;5011942;28;20018;-91
2024/03/07 07:57:47;;;;;;;44.00;15.48;;;4.60;99.90;;;;;;5011399;28;19905;-95
2024/03/07 08:00:22;;;;;;;45.30;15.95;;;4.60;99.90;;;;;;5012948;28;20022;-93
2024/03/07 08:03:09;;;;;;;46.45;16.65;;;4.60;99.90;;;;;;5016042;28;20098;-91
2024/03/07 08:05:36;;;;;;;50.85;16.15;;;4.60;99.90;;;;;;5017749;28;20038;-95
2024/03/07 08:08:05;;;;;;;43.70;16.15;;;4.60;99.90;;;;;;5010071;28;20029;-94
2024/03/07 08:10:31;;;;;;;46.70;18.73;;;4.60;99.90;;;;;;5004327;28;20031;-95
2024/03/07 08:12:58;;;;;;;47.83;16.55;;;4.70;99.90;;;;;;5003357;28;20027;-94
2024/03/07 08:15:26;;;;;;;50.83;17.55;;;4.70;99.90;;;;;;5005062;28;20026;-92
2024/03/07 08:17:52;;;;;;;46.25;16.58;;;4.70;99.90;;;;;;5000660;28;20026;-92
2024/03/07 08:20:22;;;;;;;48.70;17.50;;;4.80;99.90;;;;;;5000381;28;20105;-94
2024/03/07 08:22:52;;;;;;;54.58;18.40;;;4.80;99.90;;;;;;4999594;28;20029;-93
2024/03/07 08:25:22;;;;;;;53.88;17.98;;;4.80;99.90;;;;;;5002371;28;20502;-95
2024/03/07 08:27:49;;;;;;;48.20;16.95;;;4.80;99.90;;;;;;5004818;28;20042;-94
2024/03/07 08:30:15;;;;;;;48.63;16.83;;;4.80;99.90;;;;;;5011370;28;20042;-95
2024/03/07 08:32:46;;;;;;;52.67;20.02;;;4.80;99.90;;;;;;5014759;28;20027;-96
2024/03/07 08:35:13;;;;;;;52.03;18.10;;;4.90;99.90;;;;;;5011343;28;20014;-95
2024/03/07 08:37:40;;;;;;;57.58;20.15;;;4.90;99.90;;;;;;5006446;28;20057;-95
2024/03/07 08:40:07;;;;;;;55.42;18.55;;;4.90;99.90;;;;;;5007874;28;20050;-95
2024/03/07 08:42:36;;;;;;;56.15;19.13;;;4.90;99.90;;;;;;5014155;28;20022;-94
2024/03/07 08:45:06;;;;;;;51.47;20.30;;;4.90;99.90;;;;;;5018632;28;20050;-90
2024/03/07 08:47:35;;;;;;;54.95;20.58;;;4.90;99.90;;;;;;5015049;28;20037;-92
2024/03/07 08:50:08;;;;;;;55.53;20.02;;;4.90;99.90;;;;;;5011411;28;20030;-90
2024/03/07 08:52:37;;;;;;;56.70;19.40;;;4.90;99.90;;;;;;5008759;28;20034;-92
2024/03/07 08:55:04;;;;;;;52.50;17.93;;;4.90;99.90;;;;;;5007735;28;20022;-93
2024/03/07 08:57:30;;;;;;;51.60;18.30;;;4.90;99.90;;;;;;5001058;28;20019;-94
2024/03/07 08:59:56;;;;;;;59.92;19.77;;;4.80;99.90;;;;;;4997958;28;20030;-95
2024/03/07 09:02:22;;;;;;;51.97;17.90;;;4.90;99.90;;;;;;4982356;28;20031;-96
2024/03/07 09:04:48;;;;;;;47.90;18.33;;;4.80;99.90;;;;;;5001259;28;20388;-94
2024/03/07 09:07:17;;;;;;;49.28;17.92;;;4.80;99.90;;;;;;5019295;28;20026;-94
2024/03/07 09:09:45;;;;;;;47.80;15.93;;;4.80;99.90;;;;;;5015117;28;20014;-94
2024/03/07 09:12:11;;;;;;;44.83;17.38;;;4.80;99.90;;;;;;4996983;28;20483;-94
2024/03/07 09:14:37;;;;;;;46.38;17.48;;;4.80;99.90;;;;;;5000179;28;20029;-94
2024/03/07 09:17:04;;;;;;;41.03;16.52;;;4.80;99.90;;;;;;5015696;28;20052;-93
2024/03/07 09:19:33;;;;;;;39.90;15.27;;;4.70;99.90;;;;;;4997392;28;20505;-93
2024/03/07 09:21:59;;;;;;;38.47;14.75;;;4.70;99.90;;;;;;4998105;28;20092;-95
2024/03/07 09:24:25;;;;;;;37.63;15.18;;;4.60;99.90;;;;;;5018553;28;20038;-95
2024/03/07 09:26:52;;;;;;;39.63;16.30;;;4.50;99.90;;;;;;4998845;28;20021;-94
2024/03/07 09:29:19;;;;;;;40.10;14.32;;;4.50;99.90;;;;;;4999293;28;20030;-94
2024/03/07 09:31:46;;;;;;;46.33;15.02;;;4.50;99.90;;;;;;5000382;28;20129;-91
2024/03/07 09:34:12;;;;;;;36.72;13.82;;;4.60;99.90;;;;;;4998972;28;20026;-93
2024/03/07 09:36:40;;;;;;;39.22;11.80;;;4.70;99.90;;;;;;4998478;28;20033;-93
2024/03/07 09:39:08;;;;;;;35.97;13.70;;;4.70;99.90;;;;;;4997861;28;20076;-93
2024/03/07 09:41:34;;;;;;;32.28;12.50;;;4.70;99.90;;;;;;5015067;28;20029;-93
2024/03/07 09:44:01;;;;;;;35.08;13.75;;;4.70;99.90;;;;;;4996658;28;20455;-95
2024/03/07 09:46:27;;;;;;;36.60;13.77;;;4.70;99.90;;;;;;4997189;28;20576;-94
2024/03/07 09:48:54;;;;;;;34.78;12.45;;;4.80;99.90;;;;;;4997950;28;20065;-93
2024/03/07 09:51:21;;;;;;;32.85;12.43;;;4.70;99.90;;;;;;4997479;28;20018;-94
2024/03/07 09:53:51;;;;;;;40.95;13.90;;;4.70;99.90;;;;;;5017723;28;20538;-93
2024/03/07 09:56:20;;;;;;;37.10;13.13;;;4.80;99.90;;;;;;5013281;28;20041;-94
2024/03/07 09:58:51;;;;;;;36.95;13.40;;;4.80;99.90;;;;;;4999068;28;20033;-94
2024/03/07 10:01:21;;;;;;;45.65;14.63;;;4.80;99.90;;;;;;5016618;28;20398;-94
2024/03/07 10:04:03;;;;;;;40.15;14.18;;;4.90;99.90;;;;;;5001957;28;20138;-92
2024/03/07 10:06:30;;;;;;;31.27;12.90;;;5.00;99.90;;;;;;4999490;28;21260;-93
2024/03/07 10:08:56;;;;;;;37.38;13.05;;;5.00;99.90;;;;;;5011327;28;20054;-94
2024/03/07 10:11:23;;;;;;;36.88;13.35;;;5.10;99.90;;;;;;4995939;28;20031;-95
2024/03/07 10:13:49;;;;;;;36.35;12.43;;;5.10;99.90;;;;;;4992042;28;20089;-94
2024/03/07 10:16:18;;;;;;;41.20;13.80;;;5.10;99.90;;;;;;5017243;28;20036;-92
2024/03/07 10:18:45;;;;;;;36.17;12.95;;;5.20;99.90;;;;;;5004794;28;20026;-93
2024/03/07 10:21:13;;;;;;;42.22;14.82;;;5.30;99.90;;;;;;5022093;28;20500;-95
2024/03/07 10:23:40;;;;;;;42.53;17.15;;;5.40;99.90;;;;;;5025436;28;20630;-95
2024/03/07 10:26:05;;;;;;;43.80;15.77;;;5.40;99.90;;;;;;5009341;28;20056;-93
2024/03/07 10:28:33;;;;;;;46.22;15.30;;;5.40;99.90;;;;;;5006296;28;20071;-95
2024/03/07 10:30:59;;;;;;;43.67;15.73;;;5.40;99.90;;;;;;5008804;28;20045;-94
2024/03/07 10:33:28;;;;;;;50.55;16.42;;;5.40;99.90;;;;;;4998867;28;20034;-94
2024/03/07 10:35:53;;;;;;;42.65;15.85;;;5.50;99.90;;;;;;5004593;28;20093;-94
2024/03/07 10:38:19;;;;;;;46.70;15.95;;;5.50;99.90;;;;;;5004477;28;20057;-94
2024/03/07 10:40:47;;;;;;;49.72;17.92;;;5.50;99.90;;;;;;5002938;28;20061;-93
2024/03/07 10:43:14;;;;;;;65.75;19.63;;;5.60;99.90;;;;;;5003271;28;20128;-93
2024/03/07 10:45:48;;;;;;;63.38;22.50;;;5.50;99.90;;;;;;5004667;28;20109;-95
2024/03/07 10:48:17;;;;;;;60.40;20.13;;;5.60;99.90;;;;;;5004680;28;20065;-95
2024/03/07 10:50:53;;;;;;;52.03;18.63;;;5.60;99.90;;;;;;5004730;28;20033;-95
2024/03/07 10:53:38;;;;;;;52.97;17.90;;;5.60;99.90;;;;;;5011031;28;20026;-94
2024/03/07 10:56:11;;;;;;;56.75;18.30;;;5.70;99.90;;;;;;5008451;28;20483;-94
2024/03/07 10:59:02;;;;;;;48.20;17.70;;;5.60;99.90;;;;;;5010013;28;20029;-95
2024/03/07 11:01:33;;;;;;;53.03;17.85;;;5.70;99.90;;;;;;5008666;28;20026;-94
2024/03/07 11:03:59;;;;;;;54.67;16.27;;;5.70;99.90;;;;;;5014942;28;20045;-94
2024/03/07 11:06:26;;;;;;;53.05;20.00;;;5.70;99.90;;;;;;5019076;28;20045;-93
2024/03/07 11:08:53;;;;;;;57.97;19.02;;;5.70;99.90;;;;;;4989599;28;20022;-95
2024/03/07 11:11:19;;;;;;;58.53;20.80;;;5.70;99.90;;;;;;5006679;28;20487;-94
2024/03/07 11:13:46;;;;;;;46.92;15.95;;;5.70;99.90;;;;;;4989859;28;20099;-93
2024/03/07 11:16:14;;;;;;;48.42;16.00;;;5.70;99.90;;;;;;5006842;28;20026;-91
2024/03/07 11:18:40;;;;;;;58.67;20.17;;;5.70;99.90;;;;;;5012797;28;20050;-93
2024/03/07 11:21:07;;;;;;;60.03;21.02;;;5.70;99.90;;;;;;5029926;28;20026;-92
2024/03/07 11:23:38;;;;;;;62.50;22.55;;;5.60;99.90;;;;;;5005316;28;20631;-95
2024/03/07 11:26:10;;;;;;;64.03;21.42;;;5.70;99.90;;;;;;5005968;28;20041;-90
2024/03/07 11:28:38;;;;;;;62.05;21.90;;;5.70;99.90;;;;;;5005488;28;20041;-89
2024/03/07 11:31:09;;;;;;;71.30;23.30;;;5.70;99.90;;;;;;5022671;28;20061;-89
2024/03/07 11:33:40;;;;;;;68.18;22.88;;;5.70;99.90;;;;;;5022132;28;20025;-94
2024/03/07 11:36:12;;;;;;;75.10;24.60;;;5.80;99.90;;;;;;5009485;28;20034;-93
2024/03/07 11:38:46;;;;;;;69.95;23.58;;;5.80;99.90;;;;;;4998487;28;20048;-92
2024/03/07 11:41:13;;;;;;;62.25;23.67;;;5.80;99.90;;;;;;5001954;28;20018;-93
2024/03/07 11:43:42;;;;;;;67.20;24.80;;;5.90;99.90;;;;;;5002100;28;20085;-93
2024/03/07 11:46:16;;;;;;;81.40;25.98;;;5.90;99.90;;;;;;5003615;28;20026;-94
2024/03/07 11:48:42;;;;;;;77.05;25.30;;;5.90;99.90;;;;;;5003839;28;20108;-96
2024/03/07 11:51:13;;;;;;;79.55;25.63;;;5.90;99.90;;;;;;4999677;28;20060;-94
2024/03/07 11:53:39;;;;;;;71.93;25.45;;;5.90;99.90;;;;;;5007292;28;20097;-92
2024/03/07 11:56:16;;;;;;;78.80;25.98;;;5.90;99.90;;;;;;5009680;28;20041;-93
2024/03/07 11:58:44;;;;;;;84.40;27.02;;;5.90;99.90;;;;;;5012889;28;20464;-94
2024/03/07 12:01:10;;;;;;;74.18;24.77;;;5.80;99.90;;;;;;5003595;28;20032;-94
2024/03/07 12:03:37;;;;;;;81.70;26.02;;;5.90;99.90;;;;;;5003972;28;20038;-92
2024/03/07 12:06:03;;;;;;;79.30;24.13;;;5.90;99.90;;;;;;5005131;28;20062;-93
2024/03/07 12:08:29;;;;;;;85.25;25.95;;;5.90;99.90;;;;;;5001389;28;20018;-93
2024/03/07 12:10:56;;;;;;;80.20;25.65;;;5.90;99.90;;;;;;5005691;28;20030;-93
2024/03/07 12:13:22;;;;;;;93.47;29.40;;;5.90;99.90;;;;;;5001193;28;20084;-91
2024/03/07 12:15:51;;;;;;;90.30;26.73;;;5.90;99.90;;;;;;4989456;28;20022;-93
2024/03/07 12:18:18;;;;;;;92.60;27.42;;;5.90;99.90;;;;;;4984899;28;20038;-93
2024/03/07 12:20:53;;;;;;;98.63;30.98;;;6.00;99.90;;;;;;4985151;28;20441;-90
2024/03/07 12:23:22;;;;;;;96.22;29.15;;;6.00;99.90;;;;;;4984629;28;20106;-93
2024/03/07 12:25:47;;;;;;;98.22;31.02;;;6.00;99.90;;;;;;5016769;28;20108;-93
2024/03/07 12:28:17;;;;;;;100.75;29.73;;;6.00;99.90;;;;;;5002047;28;20475;-92
2024/03/07 12:30:45;;;;;;;102.65;33.00;;;6.00;99.90;;;;;;5005136;28;20032;-93
2024/03/07 12:33:16;;;;;;;111.38;32.45;;;6.00;99.90;;;;;;5022129;28;20029;-92
2024/03/07 12:35:43;;;;;;;107.13;33.00;;;6.00;99.90;;;;;;5007528;28;20034;-91
2024/03/07 12:38:15;;;;;;;117.65;33.60;;;6.00;99.90;;;;;;5010580;28;20057;-93
2024/03/07 12:40:40;;;;;;;121.43;33.85;;;6.10;99.90;;;;;;4984358;28;20026;-91